createdAt,value
2023-05-19T00:01:33.754Z,6.00
2023-05-19T00:04:35.081Z,5.28
2023-05-19T00:07:36.428Z,4.17
2023-05-19T00:10:37.771Z,5.82
2023-05-19T00:13:39.089Z,5.18
2023-05-19T00:16:40.432Z,4.72
2023-05-19T00:19:41.765Z,4.95
2023-05-19T00:22:43.110Z,4.53
2023-05-19T00:25:44.454Z,4.25
2023-05-19T00:28:45.812Z,6.25
2023-05-19T00:31:47.173Z,4.38
2023-05-19T00:34:48.602Z,5.18
2023-05-19T00:37:49.926Z,4.43
2023-05-19T00:40:51.280Z,4.93
2023-05-19T00:43:52.614Z,5.20
2023-05-19T00:46:54.031Z,5.32
2023-05-19T00:49:55.377Z,5.60
2023-05-19T00:52:56.718Z,5.20
2023-05-19T00:55:58.055Z,5.50
2023-05-19T00:58:59.540Z,4.22
2023-05-19T01:02:00.903Z,5.35
2023-05-19T01:05:02.315Z,5.32
2023-05-19T01:08:03.685Z,5.17
2023-05-19T01:11:05.023Z,5.47
2023-05-19T01:14:06.376Z,4.45
2023-05-19T01:17:07.714Z,7.43
2023-05-19T01:20:09.084Z,5.20
2023-05-19T01:23:10.445Z,4.90
2023-05-19T01:26:11.780Z,6.60
2023-05-19T01:29:13.105Z,5.03
2023-05-19T01:32:14.517Z,4.43
2023-05-19T01:35:15.917Z,5.25
2023-05-19T01:38:17.261Z,5.47
2023-05-19T01:41:18.609Z,4.38
2023-05-19T01:44:19.944Z,4.35
2023-05-19T01:47:21.300Z,4.72
2023-05-19T01:50:22.623Z,4.07
2023-05-19T01:53:23.983Z,5.80
2023-05-19T01:56:25.370Z,5.28
2023-05-19T01:59:26.751Z,5.93
2023-05-19T02:02:28.131Z,6.45
2023-05-19T02:05:29.473Z,5.60
2023-05-19T02:08:30.851Z,4.40
2023-05-19T02:11:32.229Z,5.60
2023-05-19T02:14:33.566Z,5.35
2023-05-19T02:17:34.982Z,5.55
2023-05-19T02:20:36.337Z,5.80
2023-05-19T02:23:37.694Z,4.87
2023-05-19T02:26:39.014Z,3.90
2023-05-19T02:29:40.346Z,5.07
2023-05-19T02:32:41.746Z,4.68
2023-05-19T02:35:43.122Z,4.45
2023-05-19T02:38:44.484Z,6.77
2023-05-19T02:41:45.840Z,5.53
2023-05-19T02:44:47.189Z,5.43
2023-05-19T02:47:48.529Z,5.93
2023-05-19T02:50:49.909Z,5.47
2023-05-19T02:53:51.245Z,4.17
2023-05-19T02:56:52.610Z,5.80
2023-05-19T02:59:53.963Z,4.68
2023-05-19T03:02:55.402Z,4.35
2023-05-19T03:05:56.838Z,4.13
2023-05-19T03:08:58.164Z,4.67
2023-05-19T03:11:59.504Z,4.45
2023-05-19T03:15:00.965Z,4.22
2023-05-19T03:18:02.339Z,4.53
2023-05-19T03:21:03.744Z,4.93
2023-05-19T03:24:05.184Z,3.97
2023-05-19T03:27:06.537Z,4.63
2023-05-19T03:30:07.893Z,5.32
2023-05-19T03:33:09.396Z,6.15
2023-05-19T03:36:10.803Z,5.18
2023-05-19T03:39:12.156Z,5.47
2023-05-19T03:42:13.506Z,5.30
2023-05-19T03:45:14.868Z,5.13
2023-05-19T03:48:16.567Z,4.72
2023-05-19T03:51:18.820Z,4.70
2023-05-19T03:54:20.163Z,6.00
2023-05-19T03:57:21.506Z,7.60
2023-05-19T04:00:22.856Z,4.82
2023-05-19T04:03:24.436Z,5.15
2023-05-19T04:06:25.932Z,4.72
2023-05-19T04:09:27.257Z,5.77
2023-05-19T04:12:28.611Z,5.28
2023-05-19T04:15:29.947Z,4.85
2023-05-19T04:18:31.318Z,5.53
2023-05-19T04:21:32.643Z,6.90
2023-05-19T04:24:33.990Z,4.43
2023-05-19T04:27:35.348Z,7.18
2023-05-19T04:30:36.704Z,5.03
2023-05-19T04:33:38.069Z,5.75
2023-05-19T04:36:39.412Z,4.72
2023-05-19T04:39:40.736Z,6.23
2023-05-19T04:42:42.094Z,5.20
2023-05-19T04:45:43.435Z,7.30
2023-05-19T04:48:44.782Z,6.57
2023-05-19T04:51:46.140Z,6.35
2023-05-19T04:54:47.501Z,6.00
2023-05-19T04:57:48.855Z,8.98
2023-05-19T05:00:50.184Z,6.03
2023-05-19T05:03:51.539Z,5.25
2023-05-19T05:06:52.976Z,5.30
2023-05-19T05:09:54.333Z,7.37
2023-05-19T05:12:55.661Z,6.78
2023-05-19T05:15:57.073Z,8.18
2023-05-19T05:18:58.473Z,4.75
2023-05-19T05:21:59.857Z,6.15
2023-05-19T05:25:01.217Z,5.77
2023-05-19T05:28:02.598Z,4.85
2023-05-19T05:31:04.005Z,7.70
2023-05-19T05:34:05.398Z,8.57
2023-05-19T05:37:06.755Z,5.80
2023-05-19T05:40:08.118Z,10.60
2023-05-19T05:43:09.465Z,4.38
2023-05-19T05:46:10.854Z,7.28
2023-05-19T05:49:12.227Z,6.63
2023-05-19T05:52:13.600Z,9.90
2023-05-19T05:55:14.976Z,58.73
2023-05-19T05:58:16.302Z,56.17
2023-05-19T06:01:17.690Z,42.95
2023-05-19T06:04:19.076Z,36.95
2023-05-19T06:07:20.434Z,36.83
2023-05-19T06:10:21.788Z,29.27
2023-05-19T06:13:23.159Z,26.58
2023-05-19T06:16:24.610Z,21.58
2023-05-19T06:19:26.010Z,26.52
2023-05-19T06:22:27.364Z,15.75
2023-05-19T06:25:28.734Z,14.80
2023-05-19T06:28:30.105Z,14.52
2023-05-19T06:31:31.541Z,15.73
2023-05-19T06:34:32.972Z,21.27
2023-05-19T06:37:35.380Z,18.73
2023-05-19T06:40:36.726Z,18.23
2023-05-19T06:43:38.108Z,15.40
2023-05-19T06:46:39.483Z,17.17
2023-05-19T06:49:40.916Z,13.02
2023-05-19T06:52:42.253Z,16.90
2023-05-19T06:55:57.486Z,21.20
2023-05-19T06:59:00.508Z,14.98
2023-05-19T07:02:01.900Z,10.57
2023-05-19T07:05:03.295Z,14.45
2023-05-19T07:08:04.643Z,17.42
2023-05-19T07:11:05.990Z,14.60
2023-05-19T07:14:07.345Z,11.07
2023-05-19T07:17:08.725Z,11.90
2023-05-19T07:20:10.101Z,12.23
2023-05-19T07:23:11.522Z,14.63
2023-05-19T07:26:12.896Z,6.67
2023-05-19T07:29:14.258Z,12.93
2023-05-19T07:32:15.678Z,15.52
2023-05-19T07:35:17.085Z,18.77
2023-05-19T07:38:18.433Z,16.10
2023-05-19T07:41:19.804Z,19.60
2023-05-19T07:44:21.163Z,16.10
2023-05-19T07:47:22.503Z,19.42
2023-05-19T07:50:23.838Z,11.10
2023-05-19T07:53:25.220Z,36.70
2023-05-19T07:56:26.606Z,28.27
2023-05-19T07:59:27.943Z,33.00
2023-05-19T08:02:29.448Z,22.40
2023-05-19T08:05:30.880Z,28.63
2023-05-19T08:08:32.317Z,27.08
2023-05-19T08:11:33.650Z,18.27
2023-05-19T08:14:35.021Z,22.23
2023-05-19T08:17:36.459Z,23.45
2023-05-19T08:20:37.841Z,17.83
2023-05-19T08:23:39.194Z,17.55
2023-05-19T08:26:40.553Z,19.73
2023-05-19T08:29:41.917Z,19.73
2023-05-19T08:32:43.306Z,21.50
2023-05-19T08:35:44.673Z,15.10
2023-05-19T08:38:46.129Z,15.63
2023-05-19T08:41:47.475Z,16.60
2023-05-19T08:44:48.859Z,12.23
2023-05-19T08:47:50.250Z,12.30
2023-05-19T08:50:51.622Z,14.73
2023-05-19T08:53:52.978Z,15.23
2023-05-19T08:56:54.345Z,11.67
2023-05-19T08:59:55.693Z,16.05
2023-05-19T09:03:06.032Z,13.93
2023-05-19T09:06:18.368Z,14.98
2023-05-19T09:09:19.744Z,15.23
2023-05-19T09:12:21.106Z,19.20
2023-05-19T09:15:22.440Z,13.18
2023-05-19T09:18:23.809Z,11.50
2023-05-19T09:21:25.137Z,15.38
2023-05-19T09:24:26.499Z,11.68
2023-05-19T09:27:27.840Z,10.17
2023-05-19T09:30:29.175Z,33.42
2023-05-19T09:33:30.616Z,98.00
2023-05-19T09:36:32.044Z,31.83
2023-05-19T09:39:33.399Z,26.83
2023-05-19T09:42:34.755Z,39.93
2023-05-19T09:45:36.088Z,18.05
2023-05-19T09:48:37.453Z,22.73
2023-05-19T09:51:38.793Z,29.35
2023-05-19T09:54:40.148Z,23.60
2023-05-19T09:57:41.643Z,16.43
2023-05-19T10:00:43.080Z,17.75
2023-05-19T10:03:44.520Z,15.55
2023-05-19T10:06:45.877Z,16.52
2023-05-19T10:09:47.288Z,16.02
2023-05-19T10:12:48.645Z,14.00
2023-05-19T10:15:58.223Z,15.48
2023-05-19T10:18:59.931Z,12.40
2023-05-19T10:22:01.322Z,18.55
2023-05-19T10:25:02.678Z,17.02
2023-05-19T10:28:04.038Z,44.00
2023-05-19T10:31:05.413Z,51.55
2023-05-19T10:34:06.763Z,42.33
2023-05-19T10:37:08.125Z,32.08
2023-05-19T10:40:09.956Z,37.92
2023-05-19T10:43:11.522Z,64.17
2023-05-19T10:46:12.973Z,34.55
2023-05-19T10:49:14.383Z,31.35
2023-05-19T10:52:15.739Z,20.60
2023-05-19T10:55:17.084Z,14.63
2023-05-19T10:58:18.401Z,21.00
2023-05-19T11:01:19.848Z,21.90
2023-05-19T11:04:21.302Z,22.77
2023-05-19T11:07:22.773Z,22.20
2023-05-19T11:10:24.128Z,27.90
2023-05-19T11:13:26.156Z,24.07
2023-05-19T11:16:27.641Z,18.83
2023-05-19T11:19:29.106Z,18.73
2023-05-19T11:22:30.479Z,16.92
2023-05-19T11:25:32.047Z,14.35
2023-05-19T11:28:33.546Z,12.70
2023-05-19T11:31:36.132Z,19.65
2023-05-19T11:34:37.530Z,12.18
2023-05-19T11:37:38.865Z,8.27
2023-05-19T11:40:40.170Z,12.38
2023-05-19T11:43:41.636Z,8.27
2023-05-19T11:46:43.046Z,9.63
2023-05-19T11:49:44.417Z,9.13
2023-05-19T11:52:45.791Z,14.10
2023-05-19T11:55:47.470Z,11.23
2023-05-19T11:58:49.059Z,9.03
2023-05-19T12:01:50.462Z,10.60
2023-05-19T12:04:51.916Z,39.85
2023-05-19T12:07:53.303Z,39.90
2023-05-19T12:10:54.626Z,17.67
2023-05-19T12:13:55.997Z,17.40
2023-05-19T12:16:57.358Z,25.92
2023-05-19T12:19:58.731Z,36.40
2023-05-19T12:23:00.104Z,21.25
2023-05-19T12:26:01.484Z,27.98
2023-05-19T12:29:02.801Z,15.67
2023-05-19T12:32:04.238Z,20.75
2023-05-19T12:35:05.636Z,16.27
2023-05-19T12:38:06.981Z,19.15
2023-05-19T12:41:08.336Z,13.95
2023-05-19T12:44:09.657Z,21.47
2023-05-19T12:47:11.020Z,14.55
2023-05-19T12:50:12.387Z,14.50
2023-05-19T12:53:13.838Z,15.82
2023-05-19T12:56:15.253Z,12.95
2023-05-19T12:59:21.184Z,12.67
2023-05-19T13:02:28.544Z,15.60
2023-05-19T13:05:29.962Z,11.45
2023-05-19T13:08:31.340Z,10.77
2023-05-19T13:11:32.680Z,12.93
2023-05-19T13:14:34.044Z,9.73
2023-05-19T13:17:35.465Z,11.00
2023-05-19T13:20:36.878Z,11.93
2023-05-19T13:23:38.233Z,10.35
2023-05-19T13:26:39.611Z,7.65
2023-05-19T13:29:40.960Z,12.33
2023-05-19T13:32:42.351Z,15.18
2023-05-19T13:35:43.749Z,10.18
2023-05-19T13:38:45.112Z,21.05
2023-05-19T13:41:46.486Z,34.75
2023-05-19T13:44:47.850Z,45.23
2023-05-19T13:47:49.252Z,23.50
2023-05-19T13:50:50.617Z,21.00
2023-05-19T13:53:51.948Z,23.00
2023-05-19T13:56:53.288Z,16.92
2023-05-19T14:00:02.430Z,28.23
2023-05-19T14:03:04.503Z,21.15
2023-05-19T14:06:05.999Z,22.05
2023-05-19T14:09:07.358Z,18.98
2023-05-19T14:12:08.690Z,63.67
2023-05-19T14:15:11.453Z,49.37
2023-05-19T14:18:13.068Z,47.42
2023-05-19T14:21:14.447Z,43.65
2023-05-19T14:24:15.790Z,38.80
2023-05-19T14:27:17.137Z,28.08
2023-05-19T14:30:18.462Z,27.33
2023-05-19T14:33:19.839Z,23.80
2023-05-19T14:36:21.173Z,20.40
2023-05-19T14:39:22.535Z,18.85
2023-05-19T14:42:23.862Z,17.80
2023-05-19T14:45:25.228Z,15.90
2023-05-19T14:48:26.584Z,20.17
2023-05-19T14:51:27.919Z,19.77
2023-05-19T14:54:29.251Z,17.63
2023-05-19T14:57:30.582Z,17.88
2023-05-19T15:00:32.184Z,16.80
2023-05-19T15:03:33.665Z,22.02
2023-05-19T15:06:35.020Z,11.68
2023-05-19T15:09:36.416Z,18.73
2023-05-19T15:12:37.785Z,71.07
2023-05-19T15:15:39.133Z,42.33
2023-05-19T15:18:40.489Z,27.63
2023-05-19T15:21:41.858Z,17.23
2023-05-19T15:24:43.219Z,21.77
2023-05-19T15:27:44.648Z,17.30
2023-05-19T15:30:46.074Z,15.40
2023-05-19T15:33:47.422Z,13.15
2023-05-19T15:36:48.776Z,14.00
2023-05-19T15:39:50.159Z,18.52
2023-05-19T15:42:51.516Z,19.55
2023-05-19T15:45:52.890Z,15.30
2023-05-19T15:48:54.277Z,12.48
2023-05-19T15:51:55.636Z,12.82
2023-05-19T15:54:56.984Z,17.10
2023-05-19T15:57:58.333Z,11.70
2023-05-19T16:00:59.692Z,13.10
2023-05-19T16:04:01.150Z,15.55
2023-05-19T16:07:02.573Z,16.25
2023-05-19T16:10:03.913Z,21.30
2023-05-19T16:13:05.280Z,11.02
2023-05-19T16:16:06.694Z,16.83
2023-05-19T16:19:08.191Z,14.50
2023-05-19T16:22:09.584Z,10.13
2023-05-19T16:25:10.940Z,13.02
2023-05-19T16:28:12.301Z,11.23
2023-05-19T16:31:13.670Z,8.13
2023-05-19T16:34:15.058Z,7.22
2023-05-19T16:37:16.381Z,13.10
2023-05-19T16:40:17.730Z,8.30
2023-05-19T16:43:19.089Z,9.15
2023-05-19T16:46:20.526Z,13.10
2023-05-19T16:49:21.990Z,9.38
2023-05-19T16:52:23.350Z,8.15
2023-05-19T16:55:24.702Z,8.10
2023-05-19T16:58:26.550Z,10.57
2023-05-19T17:01:28.929Z,12.00
2023-05-19T17:04:30.962Z,11.40
2023-05-19T17:07:32.441Z,7.57
2023-05-19T17:10:34.222Z,13.80
2023-05-19T17:13:35.864Z,6.75
2023-05-19T17:16:37.227Z,8.57
2023-05-19T17:19:38.570Z,8.02
2023-05-19T17:22:39.918Z,8.13
2023-05-19T17:25:41.304Z,9.38
2023-05-19T17:28:42.687Z,7.38
2023-05-19T17:31:44.076Z,7.83
2023-05-19T17:34:45.453Z,6.65
2023-05-19T17:37:46.808Z,6.47
2023-05-19T17:40:48.156Z,6.50
2023-05-19T17:43:49.518Z,7.38
2023-05-19T17:46:50.922Z,5.87
2023-05-19T17:49:52.333Z,8.15
2023-05-19T17:52:53.751Z,7.68
2023-05-19T17:55:55.093Z,7.00
2023-05-19T17:58:56.462Z,5.68
2023-05-19T18:01:57.892Z,6.80
2023-05-19T18:04:59.293Z,6.95
2023-05-19T18:08:00.654Z,8.38
2023-05-19T18:11:01.990Z,9.10
2023-05-19T18:14:03.351Z,6.35
2023-05-19T18:17:04.676Z,9.07
2023-05-19T18:20:06.048Z,8.48
2023-05-19T18:23:07.425Z,6.85
2023-05-19T18:26:08.827Z,7.00
2023-05-19T18:29:10.190Z,5.38
2023-05-19T18:32:11.886Z,8.13
2023-05-19T18:35:13.238Z,5.63
2023-05-19T18:38:14.589Z,6.05
2023-05-19T18:41:15.917Z,4.85
2023-05-19T18:44:17.266Z,5.68
2023-05-19T18:47:18.633Z,7.53
2023-05-19T18:50:19.974Z,5.43
2023-05-19T18:53:21.335Z,8.85
2023-05-19T18:56:22.658Z,5.95
2023-05-19T18:59:24.017Z,6.03
2023-05-19T19:02:25.381Z,6.00
2023-05-19T19:05:26.724Z,6.78
2023-05-19T19:08:28.108Z,7.10
2023-05-19T19:11:29.470Z,6.55
2023-05-19T19:14:30.827Z,6.03
2023-05-19T19:17:32.211Z,5.27
2023-05-19T19:20:33.812Z,5.75
2023-05-19T19:23:35.307Z,6.13
2023-05-19T19:26:36.645Z,6.88
2023-05-19T19:29:37.992Z,6.20
2023-05-19T19:32:39.320Z,5.77
2023-05-19T19:35:40.680Z,7.18
2023-05-19T19:38:42.023Z,6.32
2023-05-19T19:41:43.401Z,5.47
2023-05-19T19:44:44.736Z,8.07
2023-05-19T19:47:46.188Z,6.03
2023-05-19T19:50:47.613Z,6.18
2023-05-19T19:53:48.997Z,7.90
2023-05-19T19:56:50.486Z,9.40
2023-05-19T19:59:51.860Z,7.32
2023-05-19T20:03:03.908Z,8.23
2023-05-19T20:06:06.176Z,6.63
2023-05-19T20:09:07.516Z,7.60
2023-05-19T20:12:08.873Z,8.85
2023-05-19T20:15:10.217Z,7.75
2023-05-19T20:18:11.655Z,7.10
2023-05-19T20:21:13.026Z,7.32
2023-05-19T20:24:14.366Z,7.90
2023-05-19T20:27:15.709Z,9.43
2023-05-19T20:30:17.072Z,8.02
2023-05-19T20:33:18.411Z,9.37
2023-05-19T20:36:19.769Z,8.43
2023-05-19T20:39:21.119Z,8.68
2023-05-19T20:42:22.465Z,7.78
2023-05-19T20:45:23.830Z,9.40
2023-05-19T20:48:25.187Z,8.97
2023-05-19T20:51:26.541Z,6.57
2023-05-19T20:54:27.881Z,8.35
2023-05-19T20:57:29.244Z,7.55
2023-05-19T21:00:30.860Z,6.78
2023-05-19T21:03:32.270Z,8.33
2023-05-19T21:06:33.663Z,6.88
2023-05-19T21:09:35.060Z,7.68
2023-05-19T21:12:36.416Z,6.78
2023-05-19T21:15:37.782Z,7.72
2023-05-19T21:18:39.133Z,6.20
2023-05-19T21:21:40.499Z,6.38
2023-05-19T21:24:41.853Z,6.97
2023-05-19T21:27:43.186Z,7.57
2023-05-19T21:30:44.539Z,6.45
2023-05-19T21:33:45.895Z,6.83
2023-05-19T21:36:48.109Z,6.57
2023-05-19T21:39:50.780Z,6.95
2023-05-19T21:42:52.131Z,6.63
2023-05-19T21:45:53.478Z,6.53
2023-05-19T21:48:54.813Z,7.97
2023-05-19T21:51:56.186Z,6.50
2023-05-19T21:54:57.542Z,6.13
2023-05-19T21:58:00.313Z,7.13
2023-05-19T22:01:03.631Z,6.00
2023-05-19T22:04:05.022Z,6.60
2023-05-19T22:07:06.387Z,5.60
2023-05-19T22:10:07.753Z,8.07
2023-05-19T22:13:09.112Z,6.00
2023-05-19T22:16:10.498Z,6.07
2023-05-19T22:19:11.884Z,5.70
2023-05-19T22:22:14.578Z,6.40
2023-05-19T22:25:16.216Z,7.85
2023-05-19T22:28:17.569Z,6.40
2023-05-19T22:31:18.920Z,6.60
2023-05-19T22:34:20.315Z,6.07
2023-05-19T22:37:21.666Z,5.68
2023-05-19T22:40:23.014Z,8.38
2023-05-19T22:43:24.379Z,8.18
2023-05-19T22:46:25.769Z,6.95
2023-05-19T22:49:27.123Z,6.77
2023-05-19T22:52:28.483Z,5.95
2023-05-19T22:55:29.860Z,6.10
2023-05-19T22:58:31.217Z,7.30
2023-05-19T23:01:32.595Z,6.13
2023-05-19T23:04:34.079Z,6.70
2023-05-19T23:07:35.579Z,6.13
2023-05-19T23:10:36.940Z,5.65
2023-05-19T23:13:38.283Z,6.80
2023-05-19T23:16:39.671Z,6.43
2023-05-19T23:19:41.038Z,5.57
2023-05-19T23:22:42.440Z,4.95
2023-05-19T23:25:43.802Z,6.10
2023-05-19T23:28:45.139Z,5.85
2023-05-19T23:31:46.609Z,6.53
2023-05-19T23:34:48.061Z,5.80
2023-05-19T23:37:49.383Z,5.82
2023-05-19T23:40:50.731Z,6.40
2023-05-19T23:43:52.062Z,4.85
2023-05-19T23:46:53.446Z,5.95
2023-05-19T23:49:54.825Z,6.03
2023-05-19T23:52:56.167Z,5.78
2023-05-19T23:55:58.738Z,6.00
2023-05-19T23:59:00.181Z,6.28
